Time;durP1;ratioP1;P1;durP2;ratioP2;P2;SDS_P1;SDS_P2;PMS_P1;PMS_P2;Temp;Humidity;BMP_temperature;BMP_pressure;BME280_temperature;BME280_humidity;BME280_pressure;Samples;Min_cycle;Max_cycle;Signal;HPM_P1;HPM_P2
2023/09/28 00:02:17;;;;;;;2.25;1.70;;;22.70;55.20;;;;;;4997389;28;20033;-65
2023/09/28 00:04:43;;;;;;;1.85;1.50;;;22.70;55.20;;;;;;4999419;28;20064;-65
2023/09/28 00:07:09;;;;;;;2.20;1.67;;;22.70;55.20;;;;;;4999527;28;20057;-65
2023/09/28 00:09:34;;;;;;;1.80;1.30;;;22.70;55.20;;;;;;4999521;28;20030;-65
2023/09/28 00:12:00;;;;;;;2.67;1.65;;;22.70;55.20;;;;;;4999220;28;20030;-65
2023/09/28 00:14:26;;;;;;;2.03;1.50;;;22.70;55.20;;;;;;4998757;28;20033;-65
2023/09/28 00:16:52;;;;;;;2.88;1.63;;;22.60;55.60;;;;;;4998539;28;20030;-65
2023/09/28 00:19:18;;;;;;;2.05;1.70;;;22.70;55.20;;;;;;4999032;28;20045;-65
2023/09/28 00:21:43;;;;;;;2.08;1.63;;;22.70;55.10;;;;;;4998137;28;20021;-65
2023/09/28 00:24:09;;;;;;;2.50;1.70;;;22.70;55.10;;;;;;5000398;28;20034;-65
2023/09/28 00:26:37;;;;;;;1.95;1.42;;;22.70;55.10;;;;;;4999705;28;20033;-65
2023/09/28 00:29:03;;;;;;;1.88;1.48;;;22.70;55.70;;;;;;4999956;28;20030;-65
2023/09/28 00:31:28;;;;;;;2.00;1.50;;;22.60;55.10;;;;;;4998493;28;20049;-65
2023/09/28 00:33:54;;;;;;;2.53;1.83;;;22.70;55.20;;;;;;5000087;28;20060;-65
2023/09/28 00:36:20;;;;;;;2.20;1.58;;;22.60;55.10;;;;;;4998847;28;20022;-65
2023/09/28 00:38:47;;;;;;;2.20;1.58;;;22.60;55.10;;;;;;4999093;28;20026;-65
2023/09/28 00:41:13;;;;;;;2.60;1.70;;;22.60;55.10;;;;;;4998286;28;20109;-65
2023/09/28 00:43:38;;;;;;;1.70;1.50;;;22.60;55.10;;;;;;4999418;28;20491;-64
2023/09/28 00:46:05;;;;;;;2.45;1.65;;;22.60;55.10;;;;;;4997985;28;20023;-65
2023/09/28 00:48:30;;;;;;;2.08;1.75;;;22.60;55.10;;;;;;4998948;28;20081;-65
2023/09/28 00:50:59;;;;;;;2.08;1.70;;;22.60;55.10;;;;;;4999227;28;20502;-65
2023/09/28 00:53:26;;;;;;;2.15;1.70;;;22.60;55.10;;;;;;4999198;28;20131;-64
2023/09/28 00:55:53;;;;;;;1.95;1.48;;;22.60;55.10;;;;;;4998651;28;20034;-65
2023/09/28 00:58:23;;;;;;;2.08;1.50;;;22.60;55.10;;;;;;5000988;28;20026;-65
2023/09/28 01:00:49;;;;;;;2.05;1.30;;;22.60;55.10;;;;;;5003034;28;20075;-68
2023/09/28 01:03:16;;;;;;;3.33;1.60;;;22.60;55.10;;;;;;4999144;28;20062;-68
2023/09/28 01:05:42;;;;;;;2.17;1.50;;;22.60;55.10;;;;;;5002060;28;20141;-67
2023/09/28 01:08:18;;;;;;;2.22;1.50;;;22.60;55.10;;;;;;5001770;28;20562;-67
2023/09/28 01:10:45;;;;;;;1.52;1.30;;;22.60;55.10;;;;;;5001051;28;20023;-67
2023/09/28 01:13:12;;;;;;;1.80;1.50;;;22.60;55.10;;;;;;5000383;28;20066;-69
2023/09/28 01:15:43;;;;;;;1.75;1.50;;;22.60;55.10;;;;;;5000743;28;20022;-68
2023/09/28 01:18:15;;;;;;;1.90;1.60;;;22.60;55.10;;;;;;5000272;28;20957;-69
2023/09/28 01:20:41;;;;;;;1.90;1.42;;;22.60;55.10;;;;;;5001019;28;20026;-68
2023/09/28 01:23:08;;;;;;;2.00;1.50;;;22.60;55.10;;;;;;5001462;28;20540;-68
2023/09/28 01:25:35;;;;;;;2.20;1.70;;;22.60;55.10;;;;;;5002007;28;20095;-68
2023/09/28 01:28:01;;;;;;;2.60;1.48;;;22.60;55.10;;;;;;5001367;28;20034;-67
2023/09/28 01:30:27;;;;;;;1.90;1.40;;;22.60;55.10;;;;;;5001917;28;20026;-68
2023/09/28 01:32:53;;;;;;;1.90;1.60;;;22.50;55.00;;;;;;5000576;28;20405;-67
2023/09/28 01:35:20;;;;;;;1.92;1.40;;;22.50;55.00;;;;;;4999415;28;20037;-68
2023/09/28 01:38:12;;;;;;;1.83;1.50;;;22.50;55.00;;;;;;5000222;28;20014;-68
2023/09/28 01:40:38;;;;;;;1.85;1.40;;;22.50;55.00;;;;;;5001629;28;20104;-64
2023/09/28 01:43:04;;;;;;;1.95;1.50;;;22.50;55.00;;;;;;4999389;28;20030;-64
2023/09/28 01:45:30;;;;;;;2.17;1.77;;;22.50;55.00;;;;;;5000361;28;20041;-64
2023/09/28 01:47:55;;;;;;;2.10;1.60;;;22.50;55.10;;;;;;4998932;28;20042;-64
2023/09/28 01:50:21;;;;;;;1.98;1.50;;;22.50;55.10;;;;;;5000384;28;20402;-64
2023/09/28 01:52:47;;;;;;;1.95;1.40;;;22.50;55.00;;;;;;4998822;28;20030;-64
2023/09/28 01:55:13;;;;;;;1.60;1.30;;;22.50;55.00;;;;;;4998817;28;20553;-64
2023/09/28 01:57:41;;;;;;;2.55;1.55;;;22.50;55.00;;;;;;4999065;28;20040;-64
2023/09/28 02:00:16;;;;;;;1.95;1.50;;;22.50;55.00;;;;;;5003415;28;20077;-64
2023/09/28 02:02:46;;;;;;;1.90;1.40;;;22.50;55.00;;;;;;4998781;28;20030;-65
2023/09/28 02:05:12;;;;;;;1.92;1.42;;;22.50;55.00;;;;;;4998920;28;20022;-65
2023/09/28 02:07:38;;;;;;;2.00;1.27;;;22.50;55.10;;;;;;4999980;28;20434;-65
2023/09/28 02:10:09;;;;;;;1.90;1.50;;;22.50;55.00;;;;;;5000321;28;20023;-62
2023/09/28 02:12:38;;;;;;;1.75;1.40;;;22.50;55.00;;;;;;5000966;28;20033;-63
2023/09/28 02:15:04;;;;;;;1.95;1.35;;;22.50;55.10;;;;;;5001640;28;20148;-63
2023/09/28 02:17:30;;;;;;;1.80;1.30;;;22.50;55.10;;;;;;4999387;28;20658;-62
2023/09/28 02:19:56;;;;;;;1.80;1.40;;;22.50;55.10;;;;;;5000041;28;20117;-62
2023/09/28 02:22:22;;;;;;;2.15;1.38;;;22.50;55.10;;;;;;4999391;28;20068;-65
2023/09/28 02:24:50;;;;;;;1.88;1.50;;;22.50;55.10;;;;;;4999056;28;20484;-64
2023/09/28 02:27:17;;;;;;;1.75;1.40;;;22.50;55.10;;;;;;5000891;28;20133;-64
2023/09/28 02:29:44;;;;;;;2.15;1.45;;;22.40;55.00;;;;;;4999285;28;20022;-64
2023/09/28 02:32:09;;;;;;;1.70;1.38;;;22.40;55.10;;;;;;4999196;28;20796;-64
2023/09/28 02:34:35;;;;;;;1.60;1.40;;;22.50;55.10;;;;;;4998444;28;20042;-65
2023/09/28 02:37:01;;;;;;;1.50;1.27;;;22.40;55.00;;;;;;5001422;28;20375;-65
2023/09/28 02:39:28;;;;;;;1.88;1.40;;;22.40;55.00;;;;;;5000030;28;20378;-65
2023/09/28 02:41:55;;;;;;;2.13;1.50;;;22.40;55.00;;;;;;4999761;28;20030;-65
2023/09/28 02:44:21;;;;;;;1.90;1.25;;;22.40;55.00;;;;;;4998180;28;20045;-64
2023/09/28 02:46:47;;;;;;;1.60;1.20;;;22.40;55.00;;;;;;4998530;28;20030;-65
2023/09/28 02:49:13;;;;;;;1.90;1.40;;;22.40;55.00;;;;;;4998833;28;20034;-65
2023/09/28 02:51:39;;;;;;;1.50;1.30;;;22.40;55.00;;;;;;4961703;28;1093531;-65
2023/09/28 02:54:06;;;;;;;1.98;1.50;;;22.40;55.10;;;;;;5000310;28;20584;-65
2023/09/28 02:56:32;;;;;;;1.55;1.30;;;22.40;55.10;;;;;;4999545;28;20354;-64
2023/09/28 02:58:57;;;;;;;1.90;1.40;;;22.40;55.00;;;;;;5002631;28;20034;-64
2023/09/28 03:01:24;;;;;;;1.65;1.30;;;22.40;55.10;;;;;;5001273;28;20442;-64
2023/09/28 03:03:50;;;;;;;1.95;1.40;;;22.40;55.10;;;;;;4998395;28;20141;-65
2023/09/28 03:06:15;;;;;;;1.73;1.33;;;22.40;55.10;;;;;;5000083;28;20094;-65
2023/09/28 03:08:41;;;;;;;1.80;1.40;;;22.40;55.10;;;;;;5000281;28;20041;-64
2023/09/28 03:11:07;;;;;;;1.95;1.40;;;22.40;55.10;;;;;;5000937;28;20545;-64
2023/09/28 03:13:32;;;;;;;1.67;1.30;;;22.40;55.60;;;;;;5000641;28;20038;-65
2023/09/28 03:15:58;;;;;;;2.33;1.55;;;22.40;55.10;;;;;;5000992;28;20062;-65
2023/09/28 03:18:24;;;;;;;1.55;1.23;;;22.40;55.10;;;;;;4999034;28;20551;-65
2023/09/28 03:20:49;;;;;;;1.85;1.40;;;22.30;55.00;;;;;;4999089;28;20474;-65
2023/09/28 03:23:15;;;;;;;1.55;1.30;;;22.40;55.10;;;;;;5000230;28;20479;-64
2023/09/28 03:25:42;;;;;;;1.60;1.30;;;22.40;55.10;;;;;;4999060;28;20030;-64
2023/09/28 03:28:08;;;;;;;1.60;1.30;;;22.30;55.00;;;;;;4999027;28;20029;-64
2023/09/28 03:30:33;;;;;;;1.70;1.40;;;22.30;55.10;;;;;;5001722;28;20029;-68
2023/09/28 03:32:59;;;;;;;1.70;1.30;;;22.30;55.10;;;;;;4999936;28;20398;-68
2023/09/28 03:35:26;;;;;;;1.95;1.50;;;22.30;55.10;;;;;;4999224;28;20030;-68
2023/09/28 03:37:54;;;;;;;1.88;1.45;;;22.30;55.10;;;;;;4999458;28;20447;-69
2023/09/28 03:40:20;;;;;;;1.85;1.40;;;22.30;55.10;;;;;;5000907;28;20025;-68
2023/09/28 03:42:50;;;;;;;2.55;1.40;;;22.30;55.10;;;;;;5000667;28;20038;-68
2023/09/28 03:45:20;;;;;;;1.52;1.30;;;22.30;55.10;;;;;;4998508;28;20354;-67
2023/09/28 03:47:48;;;;;;;1.70;1.33;;;22.30;55.10;;;;;;4998292;28;20018;-68
2023/09/28 03:50:14;;;;;;;1.58;1.30;;;22.30;55.10;;;;;;4999083;28;20076;-68
2023/09/28 03:52:41;;;;;;;1.80;1.30;;;22.30;55.10;;;;;;4999877;28;20133;-69
2023/09/28 03:55:12;;;;;;;1.90;1.30;;;22.30;55.10;;;;;;4997172;28;20026;-68
2023/09/28 03:57:39;;;;;;;1.42;1.20;;;22.30;55.10;;;;;;4997757;28;20034;-68
2023/09/28 04:00:12;;;;;;;1.33;1.20;;;22.30;55.10;;;;;;4999009;28;20363;-65
2023/09/28 04:02:38;;;;;;;1.25;1.00;;;22.30;55.10;;;;;;4997166;28;20478;-65
2023/09/28 04:05:05;;;;;;;2.03;1.40;;;22.30;55.10;;;;;;5000650;28;20037;-65
2023/09/28 04:07:31;;;;;;;1.70;1.20;;;22.20;55.10;;;;;;4999801;28;20403;-65
2023/09/28 04:09:56;;;;;;;1.80;1.33;;;22.20;55.10;;;;;;4997650;28;20022;-64
2023/09/28 04:12:22;;;;;;;1.67;1.30;;;22.30;55.10;;;;;;5000181;28;20026;-65
2023/09/28 04:14:47;;;;;;;1.85;1.40;;;22.20;55.00;;;;;;4997535;28;20038;-65
2023/09/28 04:17:13;;;;;;;2.47;1.50;;;22.20;55.00;;;;;;4998591;28;20065;-65
2023/09/28 04:19:39;;;;;;;1.85;1.25;;;22.20;55.10;;;;;;4999157;28;20033;-65
2023/09/28 04:22:05;;;;;;;1.55;1.20;;;22.20;55.10;;;;;;4998237;28;20034;-65
2023/09/28 04:24:31;;;;;;;1.90;1.50;;;22.20;55.10;;;;;;4998165;28;20046;-65
2023/09/28 04:26:58;;;;;;;1.90;1.30;;;22.20;55.10;;;;;;4999896;28;20037;-64
2023/09/28 04:29:27;;;;;;;1.85;1.40;;;22.20;55.10;;;;;;4998050;28;20113;-64
2023/09/28 04:31:54;;;;;;;1.50;1.25;;;22.20;55.10;;;;;;4998887;28;20487;-68
2023/09/28 04:34:20;;;;;;;1.75;1.30;;;22.20;55.10;;;;;;4996616;28;20496;-67
2023/09/28 04:36:46;;;;;;;1.73;1.30;;;22.20;55.10;;;;;;4998440;28;20030;-68
2023/09/28 04:39:12;;;;;;;1.75;1.30;;;22.20;55.10;;;;;;5000634;28;20466;-69
2023/09/28 04:41:38;;;;;;;2.03;1.40;;;22.20;55.10;;;;;;4999334;28;20108;-64
2023/09/28 04:44:05;;;;;;;1.42;1.20;;;22.20;55.10;;;;;;4999249;28;20034;-64
2023/09/28 04:46:31;;;;;;;1.60;1.30;;;22.20;55.10;;;;;;5000234;28;20022;-64
2023/09/28 04:48:57;;;;;;;1.50;1.25;;;22.20;55.10;;;;;;4998333;28;20095;-64
2023/09/28 04:51:23;;;;;;;2.00;1.50;;;22.20;55.20;;;;;;4998429;28;20587;-64
2023/09/28 04:53:48;;;;;;;2.10;1.30;;;22.20;55.10;;;;;;5000619;28;20029;-65
2023/09/28 04:56:17;;;;;;;1.63;1.30;;;22.20;55.20;;;;;;4997123;28;20083;-64
2023/09/28 04:58:43;;;;;;;1.65;1.33;;;22.20;55.10;;;;;;4996807;28;20184;-64
2023/09/28 05:01:09;;;;;;;1.40;1.20;;;22.10;55.10;;;;;;4999873;28;20121;-64
2023/09/28 05:03:35;;;;;;;1.90;1.40;;;22.20;55.20;;;;;;4999269;28;20126;-64
2023/09/28 05:06:01;;;;;;;1.58;1.23;;;22.10;55.10;;;;;;4998510;28;20065;-64
2023/09/28 05:08:27;;;;;;;1.48;1.20;;;22.10;55.10;;;;;;4998442;28;20470;-64
2023/09/28 05:10:53;;;;;;;1.33;1.10;;;22.20;55.20;;;;;;4997527;28;20027;-69
2023/09/28 05:13:21;;;;;;;1.65;1.30;;;22.10;55.10;;;;;;4998710;28;20027;-69
2023/09/28 05:15:47;;;;;;;1.67;1.20;;;22.10;55.10;;;;;;4998864;28;20033;-68
2023/09/28 05:18:13;;;;;;;2.15;1.50;;;22.10;55.10;;;;;;4998094;28;20030;-70
2023/09/28 05:20:39;;;;;;;1.42;1.10;;;22.10;55.10;;;;;;4998222;28;20117;-69
2023/09/28 05:23:06;;;;;;;2.30;1.30;;;22.10;55.20;;;;;;5000091;28;20018;-69
2023/09/28 05:25:33;;;;;;;1.83;1.40;;;22.10;55.20;;;;;;4998351;28;20030;-69
2023/09/28 05:28:00;;;;;;;1.63;1.30;;;22.10;55.20;;;;;;4998809;28;20377;-69
2023/09/28 05:30:26;;;;;;;2.78;1.20;;;22.10;55.20;;;;;;4997542;28;20037;-69
2023/09/28 05:32:52;;;;;;;2.20;1.58;;;22.10;55.90;;;;;;4998406;28;20474;-69
2023/09/28 05:35:18;;;;;;;1.30;1.00;;;22.10;55.30;;;;;;4998667;28;20034;-69
2023/09/28 05:37:44;;;;;;;1.92;1.20;;;22.10;55.20;;;;;;4997089;28;20104;-69
2023/09/28 05:40:10;;;;;;;1.50;1.10;;;22.10;55.20;;;;;;4999048;28;20084;-69
2023/09/28 05:42:36;;;;;;;1.30;1.10;;;22.10;55.20;;;;;;5000384;28;20039;-69
2023/09/28 05:45:02;;;;;;;1.45;1.20;;;22.10;55.20;;;;;;4998870;28;20077;-68
2023/09/28 05:47:28;;;;;;;1.83;1.27;;;22.10;55.20;;;;;;5017431;28;20032;-70
2023/09/28 05:49:54;;;;;;;1.70;1.00;;;22.10;55.20;;;;;;5000068;28;20446;-69
2023/09/28 05:52:20;;;;;;;2.92;1.30;;;22.10;55.30;;;;;;5000771;28;20046;-66
2023/09/28 05:54:46;;;;;;;1.40;1.20;;;22.10;55.30;;;;;;5004215;28;20548;-66
2023/09/28 05:57:15;;;;;;;1.30;1.10;;;22.10;55.30;;;;;;5000331;28;20110;-65
2023/09/28 05:59:40;;;;;;;1.83;1.25;;;22.10;55.30;;;;;;5001906;28;20049;-66
2023/09/28 06:02:06;;;;;;;2.50;1.30;;;22.10;55.30;;;;;;5003488;28;20027;-66
2023/09/28 06:04:33;;;;;;;1.70;1.20;;;22.10;55.30;;;;;;5000231;28;20026;-65
2023/09/28 06:06:58;;;;;;;1.40;1.20;;;22.10;55.30;;;;;;5003212;28;20030;-66
2023/09/28 06:09:24;;;;;;;1.55;1.05;;;22.00;55.20;;;;;;5002858;28;20123;-66
2023/09/28 06:11:52;;;;;;;1.70;1.20;;;22.00;55.20;;;;;;5002210;28;20038;-66
2023/09/28 06:14:19;;;;;;;1.50;1.10;;;22.10;55.30;;;;;;5003194;28;20458;-66
2023/09/28 06:16:45;;;;;;;1.85;1.25;;;22.10;55.30;;;;;;5002285;28;20489;-66
2023/09/28 06:19:12;;;;;;;1.55;1.20;;;22.00;55.20;;;;;;4998744;28;20026;-66
2023/09/28 06:21:41;;;;;;;1.42;1.20;;;22.00;55.30;;;;;;5001397;28;20459;-70
2023/09/28 06:24:06;;;;;;;1.50;1.13;;;22.00;55.30;;;;;;5001880;28;20061;-69
2023/09/28 06:26:33;;;;;;;1.58;1.20;;;22.00;55.30;;;;;;5002644;28;20069;-69
2023/09/28 06:29:02;;;;;;;1.42;1.17;;;22.00;55.30;;;;;;5000025;28;20110;-69
2023/09/28 06:31:27;;;;;;;1.65;1.20;;;22.00;55.30;;;;;;5001005;28;20041;-69
2023/09/28 06:33:53;;;;;;;2.05;1.30;;;22.00;55.30;;;;;;4999831;28;20042;-70
2023/09/28 06:36:19;;;;;;;1.77;1.00;;;22.00;55.30;;;;;;5000372;28;20081;-69
2023/09/28 06:38:44;;;;;;;1.67;1.20;;;22.00;55.30;;;;;;5001092;28;20097;-69
2023/09/28 06:41:10;;;;;;;2.10;1.30;;;22.00;55.30;;;;;;5001452;28;20034;-68
2023/09/28 06:43:36;;;;;;;1.90;1.30;;;22.00;55.30;;;;;;4999627;28;20022;-69
2023/09/28 06:46:03;;;;;;;1.77;1.30;;;22.00;55.30;;;;;;5000705;28;20037;-69
2023/09/28 06:48:28;;;;;;;1.90;1.27;;;22.00;55.90;;;;;;5001833;28;20497;-70
2023/09/28 06:50:58;;;;;;;2.15;1.30;;;22.00;55.40;;;;;;4999172;28;20042;-66
2023/09/28 06:53:24;;;;;;;;;;;22.00;55.40;;;;;;5000726;28;20030;-66
2023/09/28 06:55:50;;;;;;;2.00;1.27;;;22.00;55.40;;;;;;5001524;28;20334;-66
2023/09/28 06:58:17;;;;;;;2.05;1.40;;;22.00;55.40;;;;;;4999307;28;20084;-65
2023/09/28 07:00:47;;;;;;;2.20;1.30;;;22.00;55.40;;;;;;4999324;28;20033;-63
2023/09/28 07:03:13;;;;;;;1.75;1.20;;;22.00;55.40;;;;;;4997984;28;20479;-67
2023/09/28 07:05:40;;;;;;;1.98;1.25;;;22.00;55.40;;;;;;4999023;28;20038;-66
2023/09/28 07:08:06;;;;;;;1.90;1.30;;;22.00;55.40;;;;;;5000515;28;20062;-66
2023/09/28 07:10:33;;;;;;;2.10;1.33;;;22.00;55.90;;;;;;5001450;28;20030;-66
2023/09/28 07:13:06;;;;;;;1.95;1.23;;;22.00;55.40;;;;;;4999686;28;20030;-66
2023/09/28 07:15:40;;;;;;;1.38;1.20;;;22.00;55.40;;;;;;5002989;28;20117;-66
2023/09/28 07:18:06;;;;;;;1.42;1.20;;;22.00;55.40;;;;;;4999994;28;20025;-65
2023/09/28 07:20:32;;;;;;;1.45;1.20;;;21.90;55.90;;;;;;4998489;28;20049;-66
2023/09/28 07:22:58;;;;;;;2.05;1.35;;;22.00;55.40;;;;;;4999686;28;20022;-66
2023/09/28 07:25:27;;;;;;;1.95;1.38;;;21.90;55.40;;;;;;5001669;28;20512;-66
2023/09/28 07:27:53;;;;;;;2.50;1.50;;;21.90;55.40;;;;;;5000219;28;20135;-66
2023/09/28 07:30:20;;;;;;;1.38;1.10;;;21.90;55.40;;;;;;5007327;28;20033;-66
2023/09/28 07:32:47;;;;;;;1.65;1.10;;;22.00;55.40;;;;;;4999901;28;20045;-69
2023/09/28 07:35:13;;;;;;;2.85;1.40;;;21.90;55.40;;;;;;4999782;28;20037;-69
2023/09/28 07:37:40;;;;;;;2.33;1.40;;;22.00;55.40;;;;;;5000083;28;20045;-69
2023/09/28 07:40:10;;;;;;;1.92;1.40;;;21.90;55.40;;;;;;5000477;28;20062;-68
2023/09/28 07:42:36;;;;;;;2.00;1.25;;;21.90;55.40;;;;;;4999036;28;20113;-69
2023/09/28 07:45:02;;;;;;;2.38;1.40;;;21.90;55.40;;;;;;5000823;28;20114;-69
2023/09/28 07:47:28;;;;;;;2.38;1.63;;;21.90;55.40;;;;;;4998063;28;20026;-69
2023/09/28 07:49:54;;;;;;;2.58;1.40;;;21.90;55.40;;;;;;4996993;28;20406;-69
2023/09/28 07:52:19;;;;;;;2.50;1.45;;;21.90;55.40;;;;;;4998372;28;20042;-70
2023/09/28 07:54:46;;;;;;;1.90;1.27;;;21.90;55.40;;;;;;4998620;28;20459;-68
2023/09/28 07:57:12;;;;;;;1.80;1.30;;;21.90;55.40;;;;;;5000756;28;20577;-68
2023/09/28 07:59:39;;;;;;;1.45;1.13;;;21.90;55.40;;;;;;4999250;28;20493;-69
2023/09/28 08:02:05;;;;;;;2.03;1.42;;;21.90;55.40;;;;;;4998768;28;20456;-64
2023/09/28 08:04:30;;;;;;;2.00;1.40;;;21.90;55.30;;;;;;4998813;28;20026;-64
2023/09/28 08:06:59;;;;;;;3.08;1.30;;;21.90;55.30;;;;;;4999332;28;20054;-64
2023/09/28 08:09:25;;;;;;;1.40;1.10;;;21.90;55.30;;;;;;4999821;28;20032;-64
2023/09/28 08:11:51;;;;;;;2.63;1.40;;;21.90;55.30;;;;;;4998854;28;20282;-66
2023/09/28 08:14:17;;;;;;;2.08;1.48;;;21.90;55.30;;;;;;5000050;28;20022;-66
2023/09/28 08:16:44;;;;;;;2.50;1.45;;;21.90;55.30;;;;;;4999482;28;20558;-66
2023/09/28 08:19:09;;;;;;;1.92;1.30;;;21.90;55.30;;;;;;4999338;28;20470;-67
2023/09/28 08:21:38;;;;;;;2.45;1.50;;;21.90;55.30;;;;;;4996537;28;20060;-66
2023/09/28 08:24:04;;;;;;;1.88;1.30;;;21.90;55.30;;;;;;4999750;28;20037;-66
2023/09/28 08:26:32;;;;;;;1.60;1.30;;;21.90;55.30;;;;;;4998888;28;20485;-66
2023/09/28 08:28:58;;;;;;;1.83;1.40;;;21.90;55.20;;;;;;4998905;28;20026;-67
2023/09/28 08:31:24;;;;;;;2.22;1.60;;;21.90;55.80;;;;;;4998563;28;20076;-66
2023/09/28 08:33:51;;;;;;;2.30;1.42;;;21.90;55.80;;;;;;5014527;28;20125;-66
2023/09/28 08:36:17;;;;;;;2.00;1.40;;;21.90;55.30;;;;;;4999662;28;20139;-67
2023/09/28 08:38:44;;;;;;;2.33;1.50;;;21.90;55.30;;;;;;4998531;28;20045;-66
2023/09/28 08:41:10;;;;;;;1.90;1.20;;;21.90;55.30;;;;;;4998016;28;20034;-63
2023/09/28 08:43:49;;;;;;;2.20;1.40;;;21.90;55.30;;;;;;4998768;28;20026;-64
2023/09/28 08:46:14;;;;;;;2.15;1.48;;;21.90;55.30;;;;;;4998388;28;20026;-64
2023/09/28 08:48:47;;;;;;;2.00;1.40;;;21.90;55.30;;;;;;4998910;28;20041;-64
2023/09/28 08:51:13;;;;;;;2.13;1.48;;;21.90;55.30;;;;;;4996442;28;20041;-64
2023/09/28 08:53:40;;;;;;;2.03;1.35;;;21.90;55.30;;;;;;4996669;28;20061;-64
2023/09/28 08:56:06;;;;;;;2.35;1.60;;;21.90;55.40;;;;;;4998298;28;20031;-64
2023/09/28 08:58:36;;;;;;;1.75;1.33;;;21.90;55.40;;;;;;4995868;28;20084;-64
2023/09/28 09:01:03;;;;;;;2.00;1.40;;;21.90;55.40;;;;;;4998694;28;20445;-65
2023/09/28 09:03:32;;;;;;;2.03;1.40;;;21.90;55.40;;;;;;4998887;28;20056;-64
2023/09/28 09:05:58;;;;;;;2.33;1.40;;;21.90;55.40;;;;;;4995555;28;20019;-65
2023/09/28 09:08:26;;;;;;;2.22;1.58;;;21.90;55.40;;;;;;5000205;28;20037;-64
2023/09/28 09:10:52;;;;;;;2.30;1.35;;;21.90;55.40;;;;;;4998579;28;20073;-69
2023/09/28 09:13:21;;;;;;;2.03;1.40;;;21.90;55.40;;;;;;4997919;28;20022;-69
2023/09/28 09:15:49;;;;;;;2.88;1.70;;;21.90;55.50;;;;;;4998288;28;20109;-69
2023/09/28 09:18:24;;;;;;;1.77;1.20;;;21.90;55.40;;;;;;5005734;28;20026;-69
2023/09/28 09:20:55;;;;;;;2.17;1.60;;;21.90;55.50;;;;;;5001090;28;20030;-69
2023/09/28 09:23:22;;;;;;;2.13;1.58;;;21.90;55.50;;;;;;5002628;28;20026;-69
2023/09/28 09:25:48;;;;;;;2.53;1.58;;;21.90;55.50;;;;;;5000617;28;20099;-69
2023/09/28 09:28:29;;;;;;;2.15;1.50;;;21.90;55.50;;;;;;5000231;28;20018;-69
2023/09/28 09:30:55;;;;;;;2.13;1.50;;;21.90;55.50;;;;;;4999810;28;20041;-69
2023/09/28 09:33:21;;;;;;;2.20;1.52;;;21.90;55.50;;;;;;5000644;28;20533;-69
2023/09/28 09:35:47;;;;;;;2.50;1.48;;;21.90;55.50;;;;;;5000003;28;20554;-70
2023/09/28 09:38:12;;;;;;;2.05;1.45;;;21.90;55.50;;;;;;5002978;28;20113;-69
2023/09/28 09:40:38;;;;;;;2.03;1.50;;;21.90;55.50;;;;;;5000777;28;20028;-68
2023/09/28 09:43:08;;;;;;;2.15;1.48;;;21.90;55.50;;;;;;5003100;28;20061;-69
2023/09/28 09:45:38;;;;;;;2.10;1.60;;;22.00;55.60;;;;;;5002248;28;20057;-69
2023/09/28 09:48:06;;;;;;;1.90;1.30;;;21.90;55.60;;;;;;5000930;28;20026;-69
2023/09/28 09:50:35;;;;;;;2.15;1.55;;;21.90;55.50;;;;;;4999343;28;20026;-69
2023/09/28 09:53:04;;;;;;;3.33;1.67;;;21.90;55.60;;;;;;5002315;28;20034;-66
2023/09/28 09:55:31;;;;;;;2.00;1.40;;;21.90;55.60;;;;;;5001171;28;20081;-67
2023/09/28 09:58:03;;;;;;;2.90;1.90;;;21.90;55.60;;;;;;5001930;28;20062;-66
2023/09/28 10:00:32;;;;;;;2.80;1.60;;;21.90;55.60;;;;;;5001243;28;20080;-67
2023/09/28 10:03:00;;;;;;;2.80;1.67;;;21.90;55.60;;;;;;5000335;28;20033;-66
2023/09/28 10:05:27;;;;;;;2.05;1.42;;;21.90;55.60;;;;;;5001161;28;20061;-66
2023/09/28 10:07:57;;;;;;;2.45;1.63;;;22.00;55.70;;;;;;5002768;28;20106;-67
2023/09/28 10:10:27;;;;;;;;;;;21.90;55.60;;;;;;5000102;28;20512;-66
2023/09/28 10:12:55;;;;;;;2.70;1.60;;;21.90;55.70;;;;;;5000633;28;20369;-67
2023/09/28 10:15:21;;;;;;;1.98;1.40;;;21.90;55.60;;;;;;4999358;28;20382;-66
2023/09/28 10:17:47;;;;;;;2.28;1.60;;;21.90;55.70;;;;;;5001446;28;20026;-67
2023/09/28 10:20:14;;;;;;;2.47;1.60;;;22.00;55.70;;;;;;4999429;28;20037;-67
2023/09/28 10:22:47;;;;;;;2.78;1.70;;;22.00;55.70;;;;;;4998369;28;20027;-69
2023/09/28 10:25:15;;;;;;;2.42;1.48;;;22.00;55.80;;;;;;4999581;28;20022;-69
2023/09/28 10:27:45;;;;;;;2.88;1.70;;;21.90;55.70;;;;;;5000184;28;20022;-69
2023/09/28 10:30:18;;;;;;;2.83;1.90;;;22.00;55.80;;;;;;5007528;28;20030;-69
2023/09/28 10:32:44;;;;;;;2.70;1.70;;;22.00;55.80;;;;;;5001788;28;20497;-69
2023/09/28 10:35:26;;;;;;;2.22;1.60;;;21.90;55.80;;;;;;5000588;28;20073;-70
2023/09/28 10:38:15;;;;;;;2.85;1.70;;;21.90;55.80;;;;;;5001633;28;20530;-69
2023/09/28 10:40:42;;;;;;;2.30;1.60;;;21.90;55.80;;;;;;5002567;28;20504;-70
2023/09/28 10:43:13;;;;;;;2.53;1.75;;;21.90;55.80;;;;;;5014399;28;20038;-70
2023/09/28 10:45:39;;;;;;;3.20;1.90;;;22.00;55.80;;;;;;5000352;28;20557;-69
2023/09/28 10:48:06;;;;;;;2.72;1.70;;;22.00;55.80;;;;;;5001102;28;20022;-70
2023/09/28 10:50:37;;;;;;;2.50;1.77;;;22.00;55.80;;;;;;4999778;28;20316;-69
2023/09/28 10:53:02;;;;;;;2.38;1.67;;;22.00;55.90;;;;;;5000746;28;20038;-70
2023/09/28 10:55:28;;;;;;;3.38;1.75;;;22.00;55.90;;;;;;5001206;28;20049;-70
2023/09/28 10:57:54;;;;;;;3.00;2.03;;;22.00;55.90;;;;;;4997936;28;20173;-69
2023/09/28 11:00:23;;;;;;;2.53;1.70;;;22.00;55.90;;;;;;4999581;28;20149;-70
2023/09/28 11:02:48;;;;;;;2.50;1.70;;;22.00;55.90;;;;;;5001726;28;20030;-63
2023/09/28 11:05:14;;;;;;;2.28;1.50;;;22.00;55.90;;;;;;5002481;28;20029;-64
2023/09/28 11:07:40;;;;;;;2.17;1.40;;;22.00;55.90;;;;;;4998505;28;20037;-63
2023/09/28 11:10:08;;;;;;;2.15;1.55;;;22.00;55.90;;;;;;5000317;28;20459;-65
2023/09/28 11:12:34;;;;;;;2.67;1.67;;;22.00;55.90;;;;;;5000981;28;20058;-63
2023/09/28 11:15:01;;;;;;;3.00;1.95;;;22.00;55.90;;;;;;5000201;28;20442;-63
2023/09/28 11:17:27;;;;;;;2.35;1.55;;;22.00;55.90;;;;;;4998450;28;20485;-63
2023/09/28 11:19:55;;;;;;;2.42;1.70;;;22.00;55.90;;;;;;4998545;28;20030;-64
2023/09/28 11:22:21;;;;;;;2.67;1.70;;;22.00;56.00;;;;;;4998213;28;20450;-63
2023/09/28 11:24:47;;;;;;;2.63;1.60;;;22.00;56.00;;;;;;5001111;28;20033;-63
2023/09/28 11:27:13;;;;;;;2.75;1.77;;;22.00;56.00;;;;;;4999917;28;20018;-64
2023/09/28 11:29:39;;;;;;;2.40;1.70;;;22.00;56.00;;;;;;5000028;28;20359;-65
2023/09/28 11:32:04;;;;;;;2.50;1.60;;;22.00;56.00;;;;;;4998772;28;20034;-67
2023/09/28 11:34:33;;;;;;;2.53;1.80;;;22.00;56.00;;;;;;4998588;28;20034;-67
2023/09/28 11:36:59;;;;;;;2.85;1.75;;;22.00;56.00;;;;;;4999885;28;20125;-67
2023/09/28 11:39:26;;;;;;;3.10;1.92;;;22.00;56.00;;;;;;4998973;28;20564;-67
2023/09/28 11:41:59;;;;;;;2.90;1.88;;;22.00;56.10;;;;;;5000543;28;20065;-67
2023/09/28 11:44:28;;;;;;;2.78;1.77;;;22.00;56.00;;;;;;5000089;28;20140;-67
2023/09/28 11:46:55;;;;;;;2.50;1.60;;;22.00;56.00;;;;;;4998951;28;20105;-66
2023/09/28 11:49:22;;;;;;;2.83;1.65;;;22.00;56.00;;;;;;5000720;28;20121;-66
2023/09/28 11:51:48;;;;;;;2.63;1.70;;;22.00;56.00;;;;;;4998492;28;20112;-67
2023/09/28 11:54:16;;;;;;;2.42;1.60;;;22.00;56.10;;;;;;4999562;28;20113;-66
2023/09/28 11:56:42;;;;;;;3.13;1.70;;;22.00;56.10;;;;;;5000148;28;20424;-66
2023/09/28 11:59:09;;;;;;;2.78;1.80;;;22.00;56.10;;;;;;5000272;28;20065;-66
2023/09/28 12:01:35;;;;;;;2.70;1.85;;;22.00;56.00;;;;;;5000187;28;20026;-66
2023/09/28 12:04:01;;;;;;;2.97;1.70;;;22.00;56.10;;;;;;4999406;28;20033;-65
2023/09/28 12:06:27;;;;;;;2.72;1.80;;;22.00;56.00;;;;;;4998264;28;20477;-66
2023/09/28 12:08:53;;;;;;;2.58;1.77;;;22.00;56.00;;;;;;5001202;28;20088;-66
2023/09/28 12:11:18;;;;;;;2.97;1.77;;;22.00;56.10;;;;;;4999064;28;20501;-67
2023/09/28 12:13:46;;;;;;;2.58;1.73;;;22.00;56.10;;;;;;5000012;28;20034;-67
2023/09/28 12:16:12;;;;;;;2.75;1.90;;;22.10;56.10;;;;;;4997788;28;20065;-67
2023/09/28 12:18:37;;;;;;;2.53;1.67;;;22.00;56.10;;;;;;4997668;28;20398;-68
2023/09/28 12:21:03;;;;;;;2.60;1.65;;;22.00;56.00;;;;;;4997188;28;20108;-66
2023/09/28 12:23:29;;;;;;;3.35;2.10;;;22.10;56.10;;;;;;4998549;28;20045;-65
2023/09/28 12:25:55;;;;;;;2.80;1.77;;;22.10;56.00;;;;;;4997180;28;20371;-66
2023/09/28 12:28:24;;;;;;;3.47;1.85;;;22.00;56.00;;;;;;4997498;28;20145;-66
2023/09/28 12:30:50;;;;;;;2.67;1.67;;;22.10;56.10;;;;;;4997336;28;20022;-66
2023/09/28 12:33:16;;;;;;;2.28;1.60;;;22.10;56.00;;;;;;5000765;28;20026;-67
2023/09/28 12:35:42;;;;;;;2.92;1.73;;;22.10;56.00;;;;;;4999231;28;20034;-67
2023/09/28 12:38:08;;;;;;;2.92;1.85;;;22.10;56.00;;;;;;4999743;28;20033;-66
2023/09/28 12:40:35;;;;;;;2.60;1.70;;;22.10;56.00;;;;;;4999283;28;20546;-67
2023/09/28 12:43:04;;;;;;;2.63;1.90;;;22.10;56.00;;;;;;4998219;28;20504;-64
2023/09/28 12:45:34;;;;;;;2.92;1.77;;;22.10;56.00;;;;;;5000346;28;20032;-64
2023/09/28 12:48:04;;;;;;;2.90;1.85;;;22.10;56.00;;;;;;4999946;28;20549;-64